Time;durP1;ratioP1;P1;durP2;ratioP2;P2;SDS_P1;SDS_P2;PMS_P1;PMS_P2;Temp;Humidity;BMP_temperature;BMP_pressure;BME280_temperature;BME280_humidity;BME280_pressure;Samples;Min_cycle;Max_cycle;Signal;HPM_P1;HPM_P2
2024/02/19 00:00:42;;;;;;;;;;;;;;;-0.18;78.38;101957.38;107940;1256;61155;-76
2024/02/19 00:03:20;;;;;;;;;;;;;;;-0.27;79.13;101960.84;108234;1256;74618;-78
2024/02/19 00:06:17;;;;;;;;;;;;;;;-0.36;79.84;101957.73;107904;1257;71624;-77
2024/02/19 00:08:54;;;;;;;;;;;;;;;-0.43;79.97;101954.09;108030;1256;72698;-77
2024/02/19 00:11:21;;;;;;;;;;;;;;;-0.50;80.57;101955.05;107759;1256;61338;-78
2024/02/19 00:13:50;;;;;;;;;;;;;;;-0.56;81.34;101953.38;107984;1256;61211;-78
2024/02/19 00:16:17;;;;;;;;;;;;;;;-0.60;81.71;101954.63;108008;1256;73321;-77
2024/02/19 00:18:43;;;;;;;;;;;;;;;-0.63;82.35;101949.60;107988;1256;72694;-77
2024/02/19 00:21:11;;;;;;;;;;;;;;;-0.67;82.90;101948.74;108005;1260;72563;-78
2024/02/19 00:23:37;;;;;;;;;;;;;;;-0.71;83.47;101951.90;108000;1256;61118;-77
2024/02/19 00:26:04;;;;;;;;;;;;;;;-0.77;83.99;101945.66;108053;1256;61121;-78
2024/02/19 00:28:31;;;;;;;;;;;;;;;-0.82;84.24;101944.95;107977;1257;74710;-76
2024/02/19 00:30:58;;;;;;;;;;;;;;;-0.87;84.87;101949.42;107983;1260;71555;-77
2024/02/19 00:33:25;;;;;;;;;;;;;;;-0.91;85.52;101947.90;107992;1257;72427;-77
2024/02/19 00:35:53;;;;;;;;;;;;;;;-0.95;86.01;101948.02;107918;1257;61254;-77
2024/02/19 00:38:20;;;;;;;;;;;;;;;-0.99;86.60;101946.87;107951;1256;61150;-77
2024/02/19 00:40:47;;;;;;;;;;;;;;;-1.02;87.35;101940.18;108035;1256;74650;-77
2024/02/19 00:43:14;;;;;;;;;;;;;;;-1.04;87.88;101941.80;107998;1256;71279;-77
2024/02/19 00:45:41;;;;;;;;;;;;;;;-1.07;88.33;101940.70;107955;1260;72446;-77
2024/02/19 00:48:08;;;;;;;;;;;;;;;-1.11;88.82;101943.02;107960;1256;61269;-77
2024/02/19 00:50:35;;;;;;;;;;;;;;;-1.15;89.42;101945.60;107923;1257;61078;-78
2024/02/19 00:53:06;;;;;;;;;;;;;;;-1.16;89.82;101942.63;108007;1257;75533;-76
2024/02/19 00:55:32;;;;;;;;;;;;;;;-1.18;90.18;101940.51;107985;1260;71465;-76
2024/02/19 00:57:59;;;;;;;;;;;;;;;-1.22;90.47;101941.53;107946;1256;72654;-76
2024/02/19 01:00:28;;;;;;;;;;;;;;;-1.27;91.05;101948.31;107907;1256;61277;-77
2024/02/19 01:02:55;;;;;;;;;;;;;;;-1.30;91.38;101947.38;107997;1256;59968;-77
2024/02/19 01:05:21;;;;;;;;;;;;;;;-1.33;92.12;101946.96;107972;1256;74331;-76
2024/02/19 01:07:48;;;;;;;;;;;;;;;-1.37;92.71;101944.39;108051;1257;72141;-77
2024/02/19 01:10:15;;;;;;;;;;;;;;;-1.39;93.07;101942.35;107951;1256;73212;-76
2024/02/19 01:12:42;;;;;;;;;;;;;;;-1.41;93.76;101944.91;108000;1257;61285;-76
2024/02/19 01:15:09;;;;;;;;;;;;;;;-1.44;94.24;101945.76;107975;1256;61144;-76
2024/02/19 01:17:36;;;;;;;;;;;;;;;-1.48;94.68;101949.27;107960;1257;72919;-76
2024/02/19 01:20:05;;;;;;;;;;;;;;;-1.51;95.33;101946.59;107958;1257;74331;-77
2024/02/19 01:22:34;;;;;;;;;;;;;;;-1.53;96.14;101941.02;107996;1260;71610;-76
2024/02/19 01:25:04;;;;;;;;;;;;;;;-1.55;96.56;101944.71;108058;1257;61035;-79
2024/02/19 01:27:32;;;;;;;;;;;;;;;-1.57;97.42;101949.09;107941;1260;61021;-78
2024/02/19 01:30:04;;;;;;;;;;;;;;;-1.59;98.38;101951.02;107931;1257;74635;-75
2024/02/19 01:33:24;;;;;;;;;;;;;;;-1.62;99.35;101953.08;107800;1257;71661;-77
2024/02/19 01:36:06;;;;;;;;;;;;;;;-1.65;100.00;101952.75;107829;1256;72591;-77
2024/02/19 01:38:42;;;;;;;;;;;;;;;-1.67;100.00;101951.87;107894;1257;61254;-77
2024/02/19 01:41:21;;;;;;;;;;;;;;;-1.70;100.00;101949.18;107998;1257;61371;-77
2024/02/19 01:43:58;;;;;;;;;;;;;;;-1.72;100.00;101951.64;107925;1257;75382;-77
2024/02/19 01:46:27;;;;;;;;;;;;;;;-1.74;100.00;101950.81;107957;1256;72526;-77
2024/02/19 01:48:55;;;;;;;;;;;;;;;-1.76;100.00;101955.90;107734;1261;72751;-77
2024/02/19 01:51:22;;;;;;;;;;;;;;;-1.79;100.00;101955.23;107922;1258;61315;-77
2024/02/19 01:53:49;;;;;;;;;;;;;;;-1.80;100.00;101954.16;107955;1257;61166;-77
2024/02/19 01:56:17;;;;;;;;;;;;;;;-1.83;100.00;101951.14;107988;1257;73447;-77
2024/02/19 01:58:44;;;;;;;;;;;;;;;-1.84;100.00;101953.15;107959;1257;72709;-76
2024/02/19 02:01:11;;;;;;;;;;;;;;;-1.85;100.00;101954.81;107993;1256;71542;-77
2024/02/19 02:03:39;;;;;;;;;;;;;;;-1.87;100.00;101957.41;107899;1260;61099;-76
2024/02/19 02:06:06;;;;;;;;;;;;;;;-1.90;100.00;101956.64;107956;1256;61145;-76
2024/02/19 02:08:33;;;;;;;;;;;;;;;-1.93;100.00;101948.38;107901;1256;74478;-77
2024/02/19 02:11:03;;;;;;;;;;;;;;;-1.96;100.00;101947.72;107860;1261;71368;-76
2024/02/19 02:13:32;;;;;;;;;;;;;;;-1.97;100.00;101953.09;107910;1256;71570;-76
2024/02/19 02:16:00;;;;;;;;;;;;;;;-1.99;100.00;101954.80;107959;1259;61232;-76
2024/02/19 02:18:26;;;;;;;;;;;;;;;-2.00;100.00;101951.77;108022;1256;61157;-76
2024/02/19 02:20:53;;;;;;;;;;;;;;;-1.99;100.00;101941.71;108076;1257;74535;-77
2024/02/19 02:23:20;;;;;;;;;;;;;;;-1.98;100.00;101938.90;107785;1256;72762;-78
2024/02/19 02:25:47;;;;;;;;;;;;;;;-1.99;100.00;101936.48;107980;1258;72604;-77
2024/02/19 02:28:14;;;;;;;;;;;;;;;-1.99;100.00;101937.59;108036;1257;61176;-77
2024/02/19 02:30:41;;;;;;;;;;;;;;;-2.00;100.00;101937.65;108054;1256;61147;-78
2024/02/19 02:33:08;;;;;;;;;;;;;;;-2.00;100.00;101935.71;107800;1257;74507;-78
2024/02/19 02:35:35;;;;;;;;;;;;;;;-1.99;100.00;101933.40;107965;1257;71100;-78
2024/02/19 02:38:03;;;;;;;;;;;;;;;-1.98;100.00;101929.44;107962;1256;72580;-77
2024/02/19 02:40:30;;;;;;;;;;;;;;;-1.97;100.00;101926.20;107983;1260;61254;-77
2024/02/19 02:42:57;;;;;;;;;;;;;;;-1.95;100.00;101925.10;107947;1260;61075;-77
2024/02/19 02:45:24;;;;;;;;;;;;;;;-1.92;100.00;101929.77;108055;1260;74502;-77
2024/02/19 02:47:51;;;;;;;;;;;;;;;-1.90;100.00;101929.38;107906;1262;71214;-76
2024/02/19 02:50:17;;;;;;;;;;;;;;;-1.87;100.00;101928.05;108082;1257;70245;-77
2024/02/19 02:52:45;;;;;;;;;;;;;;;-1.84;100.00;101932.02;108043;1257;61157;-76
2024/02/19 02:55:12;;;;;;;;;;;;;;;-1.81;100.00;101925.61;108058;1257;61216;-77
2024/02/19 02:57:38;;;;;;;;;;;;;;;-1.78;100.00;101921.45;108033;1257;74897;-76
2024/02/19 03:00:08;;;;;;;;;;;;;;;-1.76;100.00;101922.17;107986;1260;72485;-76
2024/02/19 03:02:35;;;;;;;;;;;;;;;-1.75;100.00;101925.02;108088;1257;72547;-77
2024/02/19 03:05:02;;;;;;;;;;;;;;;-1.74;100.00;101927.08;107950;1260;61226;-77
2024/02/19 03:07:29;;;;;;;;;;;;;;;-1.74;100.00;101923.20;108008;1260;60096;-76
2024/02/19 03:09:56;;;;;;;;;;;;;;;-1.75;100.00;101924.65;108050;1257;74736;-79
2024/02/19 03:12:23;;;;;;;;;;;;;;;-1.74;100.00;101922.84;107979;1260;72770;-76
2024/02/19 03:14:49;;;;;;;;;;;;;;;-1.71;100.00;101924.11;107955;1258;72467;-76
2024/02/19 03:17:16;;;;;;;;;;;;;;;-1.70;100.00;101926.35;107820;1257;61161;-76
2024/02/19 03:19:43;;;;;;;;;;;;;;;-1.72;100.00;101925.77;107894;1257;60063;-77
2024/02/19 03:22:11;;;;;;;;;;;;;;;-1.74;100.00;101924.98;107938;1260;74568;-78
2024/02/19 03:24:40;;;;;;;;;;;;;;;-1.76;100.00;101928.69;107970;1257;72759;-77
2024/02/19 03:27:06;;;;;;;;;;;;;;;-1.78;100.00;101929.38;107997;1260;72264;-77
2024/02/19 03:29:33;;;;;;;;;;;;;;;-1.78;100.00;101929.89;107982;1256;61265;-78
2024/02/19 03:32:00;;;;;;;;;;;;;;;-1.78;100.00;101933.73;107971;1258;61167;-77
2024/02/19 03:34:27;;;;;;;;;;;;;;;-1.77;100.00;101932.27;108008;1256;73270;-78
2024/02/19 03:36:54;;;;;;;;;;;;;;;-1.80;100.00;101931.23;107947;1256;73244;-77
2024/02/19 03:39:21;;;;;;;;;;;;;;;-1.81;100.00;101935.40;107987;1256;72107;-77
2024/02/19 03:41:49;;;;;;;;;;;;;;;-1.81;100.00;101933.28;108005;1260;61225;-78
2024/02/19 03:44:16;;;;;;;;;;;;;;;-1.81;100.00;101933.81;107925;1258;61201;-78
2024/02/19 03:46:43;;;;;;;;;;;;;;;-1.80;100.00;101935.98;108000;1260;74638;-78
2024/02/19 03:49:11;;;;;;;;;;;;;;;-1.78;100.00;101934.39;107903;1260;71270;-76
2024/02/19 03:51:38;;;;;;;;;;;;;;;-1.76;100.00;101936.34;107764;1257;71173;-79
2024/02/19 03:54:04;;;;;;;;;;;;;;;-1.75;100.00;101937.23;108003;1257;61175;-78
2024/02/19 03:56:31;;;;;;;;;;;;;;;-1.72;100.00;101939.28;107997;1259;59983;-78
2024/02/19 03:58:58;;;;;;;;;;;;;;;-1.71;100.00;101940.23;107968;1259;74644;-78
2024/02/19 04:01:25;;;;;;;;;;;;;;;-1.71;100.00;101944.25;107990;1260;72689;-78
2024/02/19 04:03:52;;;;;;;;;;;;;;;-1.73;100.00;101941.57;107917;1258;72408;-78
2024/02/19 04:06:19;;;;;;;;;;;;;;;-1.73;100.00;101941.30;107883;1262;61212;-78
2024/02/19 04:08:46;;;;;;;;;;;;;;;-1.73;100.00;101937.11;107871;1256;61025;-77
2024/02/19 04:11:14;;;;;;;;;;;;;;;-1.73;100.00;101937.77;107920;1257;74871;-77
2024/02/19 04:13:41;;;;;;;;;;;;;;;-1.76;100.00;101933.15;107942;1260;72731;-77
2024/02/19 04:16:10;;;;;;;;;;;;;;;-1.79;100.00;101932.19;107995;1257;72620;-78
2024/02/19 04:18:37;;;;;;;;;;;;;;;-1.80;100.00;101933.74;107981;1257;61260;-77
2024/02/19 04:21:05;;;;;;;;;;;;;;;-1.83;100.00;101924.59;107976;1257;61212;-77
2024/02/19 04:23:33;;;;;;;;;;;;;;;-1.84;100.00;101928.55;107940;1258;74502;-77
2024/02/19 04:25:59;;;;;;;;;;;;;;;-1.86;100.00;101925.07;107987;1257;72719;-76
2024/02/19 04:28:26;;;;;;;;;;;;;;;-1.90;100.00;101923.42;107955;1260;72470;-76
2024/02/19 04:30:53;;;;;;;;;;;;;;;-1.94;100.00;101927.01;107926;1257;61105;-77
2024/02/19 04:33:20;;;;;;;;;;;;;;;-1.98;100.00;101926.60;107953;1257;61190;-76
2024/02/19 04:35:47;;;;;;;;;;;;;;;-2.00;100.00;101924.79;107814;1257;73397;-78
2024/02/19 04:38:14;;;;;;;;;;;;;;;-2.05;100.00;101925.55;107984;1260;72166;-78
2024/02/19 04:40:41;;;;;;;;;;;;;;;-2.09;100.00;101929.80;107723;1258;72672;-76
2024/02/19 04:43:08;;;;;;;;;;;;;;;-2.15;100.00;101925.89;107996;1258;61166;-78
2024/02/19 04:45:34;;;;;;;;;;;;;;;-2.16;100.00;101931.46;107821;1257;61331;-78
2024/02/19 04:48:04;;;;;;;;;;;;;;;-2.18;100.00;101929.66;107947;1257;73195;-78
2024/02/19 04:50:30;;;;;;;;;;;;;;;-2.19;100.00;101934.14;107997;1257;72676;-79
2024/02/19 04:52:57;;;;;;;;;;;;;;;-2.20;100.00;101938.30;107947;1257;72762;-77
2024/02/19 04:55:24;;;;;;;;;;;;;;;-2.22;100.00;101942.92;108007;1259;61260;-78
2024/02/19 04:57:51;;;;;;;;;;;;;;;-2.23;100.00;101939.02;107992;1258;60036;-77
2024/02/19 05:00:18;;;;;;;;;;;;;;;-2.24;100.00;101940.14;108038;1260;74649;-77
2024/02/19 05:02:45;;;;;;;;;;;;;;;-2.25;100.00;101945.34;107986;1260;72589;-78
2024/02/19 05:05:11;;;;;;;;;;;;;;;-2.25;100.00;101943.98;107904;1258;73150;-78
2024/02/19 05:07:39;;;;;;;;;;;;;;;-2.28;100.00;101944.05;107893;1261;61138;-77
2024/02/19 05:10:07;;;;;;;;;;;;;;;-2.30;100.00;101950.20;107872;1256;61139;-75
2024/02/19 05:12:35;;;;;;;;;;;;;;;-2.32;100.00;101950.38;107881;1257;75665;-76
2024/02/19 05:15:01;;;;;;;;;;;;;;;-2.33;100.00;101949.23;107948;1257;73123;-77
2024/02/19 05:17:29;;;;;;;;;;;;;;;-2.34;100.00;101949.81;107933;1257;75064;-80
2024/02/19 05:19:55;;;;;;;;;;;;;;;-2.33;100.00;101950.30;107917;1257;61075;-78
2024/02/19 05:22:23;;;;;;;;;;;;;;;-2.32;100.00;101954.73;107744;1257;61118;-78
2024/02/19 05:24:51;;;;;;;;;;;;;;;-2.31;100.00;101958.93;108022;1258;74509;-78
2024/02/19 05:27:19;;;;;;;;;;;;;;;-2.27;100.00;101962.58;107759;1258;71456;-77
2024/02/19 05:29:46;;;;;;;;;;;;;;;-2.22;100.00;101956.61;107893;1260;72584;-77
2024/02/19 05:32:14;;;;;;;;;;;;;;;-2.16;100.00;101948.66;107846;1257;61562;-77
2024/02/19 05:34:46;;;;;;;;;;;;;;;-2.08;100.00;101947.27;107963;1260;61335;-77
2024/02/19 05:37:13;;;;;;;;;;;;;;;-2.01;100.00;101952.22;107739;1257;73573;-77
2024/02/19 05:39:41;;;;;;;;;;;;;;;-1.94;100.00;101952.52;107788;1257;72627;-78
2024/02/19 05:42:09;;;;;;;;;;;;;;;-1.86;100.00;101947.36;107945;1257;71213;-78
2024/02/19 05:44:35;;;;;;;;;;;;;;;-1.76;100.00;101948.92;107924;1256;61232;-77
2024/02/19 05:47:04;;;;;;;;;;;;;;;-1.66;100.00;101950.70;107919;1256;61194;-77
2024/02/19 05:49:31;;;;;;;;;;;;;;;-1.56;100.00;101953.99;107928;1257;74405;-78
2024/02/19 05:51:59;;;;;;;;;;;;;;;-1.46;100.00;101948.06;108007;1256;72580;-78
2024/02/19 05:54:26;;;;;;;;;;;;;;;-1.34;100.00;101950.38;108013;1256;72564;-77
2024/02/19 05:56:53;;;;;;;;;;;;;;;-1.19;100.00;101948.43;107946;1257;61128;-78
2024/02/19 05:59:20;;;;;;;;;;;;;;;-1.03;100.00;101952.34;107983;1256;61105;-77
2024/02/19 06:01:47;;;;;;;;;;;;;;;-0.94;100.00;101951.62;107972;1257;74742;-78
2024/02/19 06:04:14;;;;;;;;;;;;;;;-0.86;100.00;101950.21;107775;1257;72872;-77
2024/02/19 06:06:43;;;;;;;;;;;;;;;-0.79;100.00;101949.52;107969;1258;72757;-77
2024/02/19 06:09:10;;;;;;;;;;;;;;;-0.88;100.00;101953.13;107937;1257;61157;-76
2024/02/19 06:11:45;;;;;;;;;;;;;;;-0.91;100.00;101953.31;107830;1256;61101;-78
2024/02/19 06:14:13;;;;;;;;;;;;;;;-0.74;100.00;101950.27;108016;1256;73251;-77
2024/02/19 06:16:40;;;;;;;;;;;;;;;-0.58;100.00;101951.33;107968;1256;72788;-77
2024/02/19 06:19:08;;;;;;;;;;;;;;;-0.52;100.00;101952.88;107930;1260;72673;-77
2024/02/19 06:21:36;;;;;;;;;;;;;;;-0.49;100.00;101956.05;107835;1257;61232;-78
2024/02/19 06:24:03;;;;;;;;;;;;;;;-0.42;100.00;101959.23;107970;1257;61301;-77
2024/02/19 06:26:30;;;;;;;;;;;;;;;-0.33;100.00;101960.06;107972;1257;75030;-78
2024/02/19 06:28:57;;;;;;;;;;;;;;;-0.26;100.00;101962.68;107773;1258;71339;-78
2024/02/19 06:31:27;;;;;;;;;;;;;;;-0.22;100.00;101957.27;107801;1261;72643;-77
2024/02/19 06:33:54;;;;;;;;;;;;;;;-0.19;100.00;101957.33;107822;1257;61125;-77
2024/02/19 06:36:21;;;;;;;;;;;;;;;-0.14;100.00;101954.52;107919;1256;61350;-77
2024/02/19 06:38:48;;;;;;;;;;;;;;;-0.04;100.00;101954.78;107959;1260;74730;-77
2024/02/19 06:41:15;;;;;;;;;;;;;;;0.09;100.00;101952.19;107836;1262;72549;-77
2024/02/19 06:43:49;;;;;;;;;;;;;;;0.23;98.92;101949.45;107898;1256;72212;-77
2024/02/19 06:46:21;;;;;;;;;;;;;;;0.33;96.34;101948.62;107837;1257;61203;-77
2024/02/19 06:48:48;;;;;;;;;;;;;;;0.41;94.17;101950.02;107926;1256;61161;-76
2024/02/19 06:51:17;;;;;;;;;;;;;;;0.50;91.70;101944.45;107903;1257;73108;-78
2024/02/19 06:53:44;;;;;;;;;;;;;;;0.54;89.19;101946.15;107958;1256;72746;-77
2024/02/19 06:56:12;;;;;;;;;;;;;;;0.59;87.54;101950.52;107833;1260;72554;-77
2024/02/19 06:58:40;;;;;;;;;;;;;;;0.65;86.37;101953.01;107929;1256;61229;-76
2024/02/19 07:01:07;;;;;;;;;;;;;;;0.74;85.31;101945.68;108078;1256;61340;-79
2024/02/19 07:03:34;;;;;;;;;;;;;;;0.79;83.84;101944.91;107988;1258;74377;-76
2024/02/19 07:06:01;;;;;;;;;;;;;;;0.80;82.41;101945.15;107965;1258;71679;-76
2024/02/19 07:08:28;;;;;;;;;;;;;;;0.79;81.11;101946.52;107937;1260;72690;-76
2024/02/19 07:10:55;;;;;;;;;;;;;;;0.78;79.65;101946.25;107943;1257;61279;-77
2024/02/19 07:13:22;;;;;;;;;;;;;;;0.79;78.39;101944.95;107915;1257;59602;-78
2024/02/19 07:15:49;;;;;;;;;;;;;;;0.81;77.39;101945.15;107863;1256;75314;-77
2024/02/19 07:18:16;;;;;;;;;;;;;;;0.83;76.89;101944.56;107836;1257;72493;-76
2024/02/19 07:20:43;;;;;;;;;;;;;;;0.88;76.42;101946.49;107961;1256;72606;-76
2024/02/19 07:23:10;;;;;;;;;;;;;;;0.95;75.98;101943.95;107945;1256;61104;-76
2024/02/19 07:25:37;;;;;;;;;;;;;;;1.06;75.61;101940.02;107933;1257;61119;-76
2024/02/19 07:28:04;;;;;;;;;;;;;;;1.20;75.06;101940.54;107948;1257;74642;-76
2024/02/19 07:30:31;;;;;;;;;;;;;;;1.30;74.09;101939.25;107867;1257;72535;-77
2024/02/19 07:32:58;;;;;;;;;;;;;;;1.36;73.31;101936.46;107869;1258;71864;-77
2024/02/19 07:35:28;;;;;;;;;;;;;;;1.47;72.90;101940.32;107881;1257;61763;-76
2024/02/19 07:37:54;;;;;;;;;;;;;;;1.54;72.17;101940.41;107750;1257;61443;-76
2024/02/19 07:40:21;;;;;;;;;;;;;;;1.61;71.36;101935.79;107770;1262;73506;-77
2024/02/19 07:42:49;;;;;;;;;;;;;;;1.69;70.32;101936.20;107945;1260;72520;-77
2024/02/19 07:45:15;;;;;;;;;;;;;;;1.76;69.28;101934.05;107849;1257;71445;-77
2024/02/19 07:47:44;;;;;;;;;;;;;;;1.82;68.34;101926.71;107876;1256;61282;-77
2024/02/19 07:50:10;;;;;;;;;;;;;;;1.89;67.44;101927.89;107919;1256;61140;-77
2024/02/19 07:52:39;;;;;;;;;;;;;;;1.93;66.35;101927.50;107946;1256;74468;-77
2024/02/19 07:55:06;;;;;;;;;;;;;;;1.99;65.89;101929.10;107849;1257;72758;-76
2024/02/19 07:57:33;;;;;;;;;;;;;;;2.06;64.99;101924.91;107860;1256;72891;-76
2024/02/19 08:00:00;;;;;;;;;;;;;;;2.14;64.12;101924.66;107868;1257;61135;-77
2024/02/19 08:02:27;;;;;;;;;;;;;;;2.15;62.31;101927.01;107846;1256;61104;-74
2024/02/19 08:04:53;;;;;;;;;;;;;;;2.10;61.13;101931.74;107931;1256;74727;-76
2024/02/19 08:07:24;;;;;;;;;;;;;;;2.09;60.31;101929.38;87478;1260;20002792;-72
2024/02/19 08:09:51;;;;;;;;;;;;;;;2.09;59.56;101927.11;107691;1256;59412;-74
2024/02/19 08:12:19;;;;;;;;;;;;;;;2.08;59.41;101923.00;107753;1257;61139;-74
2024/02/19 08:14:48;;;;;;;;;;;;;;;2.15;59.03;101923.67;107662;1256;61560;-74
2024/02/19 08:17:16;;;;;;;;;;;;;;;2.23;58.89;101921.71;107637;1257;61218;-74
2024/02/19 08:19:42;;;;;;;;;;;;;;;2.32;58.17;101919.81;107692;1259;74959;-74
2024/02/19 08:22:09;;;;;;;;;;;;;;;2.40;57.31;101922.30;107767;1256;73186;-75
2024/02/19 08:24:36;;;;;;;;;;;;;;;2.42;57.08;101921.52;107778;1257;71602;-75
2024/02/19 08:27:03;;;;;;;;;;;;;;;2.46;56.91;101919.32;107672;1256;61231;-74
2024/02/19 08:29:30;;;;;;;;;;;;;;;2.49;56.26;101915.91;108341;1257;60438;-75
2024/02/19 08:31:57;;;;;;;;;;;;;;;2.46;55.48;101915.84;108585;1257;73245;-76
2024/02/19 08:34:24;;;;;;;;;;;;;;;2.49;55.37;101916.23;108401;1256;70266;-74
2024/02/19 08:36:51;;;;;;;;;;;;;;;2.55;55.58;101913.98;108156;1256;71268;-76
2024/02/19 08:39:19;;;;;;;;;;;;;;;2.66;55.35;101914.17;108061;1257;61372;-75
2024/02/19 08:41:46;;;;;;;;;;;;;;;2.72;53.29;101914.23;107801;1256;61278;-73
2024/02/19 08:44:12;;;;;;;;;;;;;;;2.72;51.72;101911.52;107854;1260;75834;-75
2024/02/19 08:46:40;;;;;;;;;;;;;;;2.72;50.85;101910.70;107848;1260;71587;-74
2024/02/19 08:49:09;;;;;;;;;;;;;;;2.68;50.66;101909.02;107676;1256;72676;-74
2024/02/19 08:52:12;;;;;;;;;;;;;;;2.68;51.05;101905.65;107636;1256;61148;-74
2024/02/19 08:54:45;;;;;;;;;;;;;;;2.80;49.81;101906.61;107906;1257;61125;-76
2024/02/19 08:57:16;;;;;;;;;;;;;;;2.94;48.29;101908.82;107691;1258;73531;-75
2024/02/19 08:59:45;;;;;;;;;;;;;;;3.03;45.47;101907.98;108432;1256;73907;-76
2024/02/19 09:02:12;;;;;;;;;;;;;;;3.07;44.14;101905.52;107855;1256;71457;-76
2024/02/19 09:04:42;;;;;;;;;;;;;;;3.12;43.71;101903.41;107695;1257;61406;-77
2024/02/19 09:07:12;;;;;;;;;;;;;;;3.26;44.16;101904.34;107728;1256;61176;-75
2024/02/19 09:09:39;;;;;;;;;;;;;;;3.42;43.39;101905.22;107861;1257;75717;-77
2024/02/19 09:12:07;;;;;;;;;;;;;;;3.52;40.98;101908.98;107790;1257;72578;-76
2024/02/19 09:14:34;;;;;;;;;;;;;;;3.53;40.17;101905.30;107731;1256;73120;-78
2024/02/19 09:17:01;;;;;;;;;;;;;;;3.54;39.51;101905.96;107734;1256;61001;-75
2024/02/19 09:19:29;;;;;;;;;;;;;;;3.53;39.38;101903.32;107756;1256;61253;-75
2024/02/19 09:21:59;;;;;;;;;;;;;;;3.55;39.24;101900.34;107750;1257;73271;-76
2024/02/19 09:24:25;;;;;;;;;;;;;;;3.58;38.40;101903.17;107843;1257;71840;-75
2024/02/19 09:26:53;;;;;;;;;;;;;;;3.58;37.47;101905.49;107889;1256;72798;-76
2024/02/19 09:29:19;;;;;;;;;;;;;;;3.52;35.84;101899.27;107702;1256;61215;-76
2024/02/19 09:31:46;;;;;;;;;;;;;;;3.40;36.20;101897.64;107764;1256;61080;-75
2024/02/19 09:34:14;;;;;;;;;;;;;;;3.34;37.21;101889.56;107830;1257;74655;-74
2024/02/19 09:36:45;;;;;;;;;;;;;;;3.33;36.58;101892.64;107715;1257;70980;-76
2024/02/19 09:39:13;;;;;;;;;;;;;;;3.26;36.76;101892.20;107752;1256;73938;-76
2024/02/19 09:41:41;;;;;;;;;;;;;;;3.22;37.15;101890.56;107759;1257;61104;-75
2024/02/19 09:44:09;;;;;;;;;;;;;;;3.18;37.60;101882.25;107788;1256;61123;-78
2024/02/19 09:46:39;;;;;;;;;;;;;;;3.23;37.95;101878.52;107831;1257;74698;-78
2024/02/19 09:49:07;;;;;;;;;;;;;;;3.28;37.00;101878.77;107861;1257;71334;-76
2024/02/19 09:51:35;;;;;;;;;;;;;;;3.20;36.50;101873.15;107624;1262;72077;-75
2024/02/19 09:54:07;;;;;;;;;;;;;;;3.12;37.00;101871.86;107389;1256;299147;-75
2024/02/19 09:56:34;;;;;;;;;;;;;;;3.11;37.13;101867.75;107745;1256;61254;-73
2024/02/19 09:59:02;;;;;;;;;;;;;;;3.14;38.17;101869.83;107749;1256;74605;-76
2024/02/19 10:01:29;;;;;;;;;;;;;;;3.25;38.86;101870.02;107674;1257;73024;-77
2024/02/19 10:03:56;;;;;;;;;;;;;;;3.32;39.26;101864.58;107814;1256;72472;-79
2024/02/19 10:06:34;;;;;;;;;;;;;;;3.39;39.51;101864.73;107817;1255;61171;-77
2024/02/19 10:09:06;;;;;;;;;;;;;;;3.46;39.34;101859.79;107846;1259;61170;-78
2024/02/19 10:11:34;;;;;;;;;;;;;;;3.49;38.95;101856.84;107783;1256;75907;-78
2024/02/19 10:14:05;;;;;;;;;;;;;;;3.49;39.20;101857.36;107913;1256;71922;-77
2024/02/19 10:16:32;;;;;;;;;;;;;;;3.55;39.65;101854.23;107721;1258;73068;-76
2024/02/19 10:19:06;;;;;;;;;;;;;;;3.64;39.65;101850.72;107815;1257;61257;-78
2024/02/19 10:21:33;;;;;;;;;;;;;;;3.79;39.51;101850.85;108007;1257;61141;-79
2024/02/19 10:24:02;;;;;;;;;;;;;;;3.92;39.85;101846.15;107855;1256;73765;-79
2024/02/19 10:26:29;;;;;;;;;;;;;;;4.06;39.54;101844.02;107961;1257;72652;-78
2024/02/19 10:28:57;;;;;;;;;;;;;;;4.10;39.20;101848.60;107930;1257;71109;-78
2024/02/19 10:31:24;;;;;;;;;;;;;;;4.10;39.16;101844.37;107891;1258;60725;-78
2024/02/19 10:33:52;;;;;;;;;;;;;;;4.08;38.56;101838.25;107904;1257;61165;-78
2024/02/19 10:36:22;;;;;;;;;;;;;;;4.04;38.15;101836.09;107908;1256;75862;-79
2024/02/19 10:38:49;;;;;;;;;;;;;;;4.04;38.27;101833.18;107956;1256;70910;-78
2024/02/19 10:41:17;;;;;;;;;;;;;;;4.08;38.39;101826.61;107984;1256;71476;-79
2024/02/19 10:43:46;;;;;;;;;;;;;;;4.09;38.70;101829.69;107958;1256;61142;-79
2024/02/19 10:46:19;;;;;;;;;;;;;;;4.13;38.60;101825.30;107927;1256;61163;-79
2024/02/19 10:48:50;;;;;;;;;;;;;;;4.12;38.11;101824.09;107957;1256;75167;-78
2024/02/19 10:51:19;;;;;;;;;;;;;;;4.06;37.92;101821.98;107982;1256;72898;-79
2024/02/19 10:53:46;;;;;;;;;;;;;;;3.99;38.18;101825.03;107896;1261;72854;-79
2024/02/19 10:56:13;;;;;;;;;;;;;;;3.95;38.35;101823.23;107909;1257;61185;-78
2024/02/19 10:58:51;;;;;;;;;;;;;;;3.93;38.54;101818.85;107951;1257;61273;-80
2024/02/19 11:01:18;;;;;;;;;;;;;;;3.98;38.22;101818.77;107901;1256;74363;-78
2024/02/19 11:03:47;;;;;;;;;;;;;;;3.96;38.27;101816.97;107892;1256;72940;-78
2024/02/19 11:06:24;;;;;;;;;;;;;;;3.93;38.46;101814.29;107973;1256;72693;-78
2024/02/19 11:08:54;;;;;;;;;;;;;;;3.93;38.30;101812.73;107878;1256;61107;-78
2024/02/19 11:11:21;;;;;;;;;;;;;;;3.92;38.08;101804.40;108018;1256;61268;-78
2024/02/19 11:13:48;;;;;;;;;;;;;;;3.90;38.19;101804.04;108021;1257;73552;-78
2024/02/19 11:16:18;;;;;;;;;;;;;;;3.89;37.89;101805.25;107884;1257;73968;-79
2024/02/19 11:18:48;;;;;;;;;;;;;;;3.85;37.66;101797.82;107928;1257;71763;-78
2024/02/19 11:21:18;;;;;;;;;;;;;;;3.86;38.09;101798.23;107988;1256;61087;-79
2024/02/19 11:23:45;;;;;;;;;;;;;;;3.87;38.25;101797.77;107924;1257;61203;-79
2024/02/19 11:26:14;;;;;;;;;;;;;;;3.82;38.09;101800.44;107837;1258;74692;-78
2024/02/19 11:28:41;;;;;;;;;;;;;;;3.75;38.17;101795.65;107885;1256;72835;-79
2024/02/19 11:31:12;;;;;;;;;;;;;;;3.74;38.37;101795.43;107776;1262;73862;-78
2024/02/19 11:33:40;;;;;;;;;;;;;;;3.74;38.43;101797.21;107836;1256;61141;-79
2024/02/19 11:36:08;;;;;;;;;;;;;;;3.78;38.75;101794.80;107885;1260;61205;-78
2024/02/19 11:38:38;;;;;;;;;;;;;;;3.86;39.47;101791.38;107931;1257;75843;-79
2024/02/19 11:41:05;;;;;;;;;;;;;;;3.91;39.23;101788.27;107857;1257;73711;-80
2024/02/19 11:43:32;;;;;;;;;;;;;;;3.98;39.69;101790.35;107762;1256;73953;-79
2024/02/19 11:45:59;;;;;;;;;;;;;;;4.06;39.51;101783.88;107916;1257;62911;-78
2024/02/19 11:48:29;;;;;;;;;;;;;;;4.11;39.54;101779.23;107924;1256;61334;-78
2024/02/19 11:50:57;;;;;;;;;;;;;;;4.17;39.64;101779.70;107941;1256;73402;-79
2024/02/19 11:53:25;;;;;;;;;;;;;;;4.21;40.12;101775.31;107980;1256;73941;-78
2024/02/19 11:56:01;;;;;;;;;;;;;;;4.26;40.05;101776.44;107840;1256;72887;-78
2024/02/19 11:58:29;;;;;;;;;;;;;;;4.22;39.80;101773.14;107870;1257;61270;-79
2024/02/19 12:00:57;;;;;;;;;;;;;;;4.17;39.95;101770.39;107870;1256;60407;-76
2024/02/19 12:03:25;;;;;;;;;;;;;;;4.21;40.10;101776.42;107935;1256;74687;-78
2024/02/19 12:05:52;;;;;;;;;;;;;;;4.29;39.95;101771.96;107893;1260;71605;-77
2024/02/19 12:08:20;;;;;;;;;;;;;;;4.34;39.50;101769.53;107899;1256;73720;-78
2024/02/19 12:10:47;;;;;;;;;;;;;;;4.32;39.69;101765.20;107886;1256;59969;-78
2024/02/19 12:13:16;;;;;;;;;;;;;;;4.34;39.97;101766.70;107883;1256;61234;-78
2024/02/19 12:15:49;;;;;;;;;;;;;;;4.41;40.26;101764.00;107928;1257;74953;-77
2024/02/19 12:18:19;;;;;;;;;;;;;;;4.49;39.85;101763.52;107789;1256;71545;-77
2024/02/19 12:20:47;;;;;;;;;;;;;;;4.47;39.51;101761.17;107974;1259;72975;-79
2024/02/19 12:23:14;;;;;;;;;;;;;;;4.39;39.35;101761.25;107709;1256;61243;-78
2024/02/19 12:25:41;;;;;;;;;;;;;;;4.31;39.19;101756.23;107926;1257;61039;-79
2024/02/19 12:28:08;;;;;;;;;;;;;;;4.22;39.05;101754.42;107894;1256;74938;-79
2024/02/19 12:30:37;;;;;;;;;;;;;;;4.15;39.14;101751.42;107840;1256;73799;-79
2024/02/19 12:33:03;;;;;;;;;;;;;;;4.14;39.51;101753.96;107748;1257;72736;-79